sensor_id;sensor_type;location;lat;lon;timestamp;P1;durP1;ratioP1;P2;durP2;ratioP2
16450;SDS011;12243;42.708;23.310;2022-10-30T00:01:41;19.30;;;14.23;;
16450;SDS011;12243;42.708;23.310;2022-10-30T00:04:08;21.00;;;13.80;;
16450;SDS011;12243;42.708;23.310;2022-10-30T00:06:35;23.47;;;15.33;;
16450;SDS011;12243;42.708;23.310;2022-10-30T00:09:02;26.67;;;15.33;;
16450;SDS011;12243;42.708;23.310;2022-10-30T00:11:30;27.93;;;17.03;;
16450;SDS011;12243;42.708;23.310;2022-10-30T00:13:57;23.47;;;16.17;;
16450;SDS011;12243;42.708;23.310;2022-10-30T00:16:24;24.30;;;16.63;;
16450;SDS011;12243;42.708;23.310;2022-10-30T00:18:51;20.33;;;16.27;;
16450;SDS011;12243;42.708;23.310;2022-10-30T00:21:18;22.10;;;15.00;;
16450;SDS011;12243;42.708;23.310;2022-10-30T00:23:46;23.73;;;15.80;;
16450;SDS011;12243;42.708;23.310;2022-10-30T00:26:13;22.53;;;15.70;;
16450;SDS011;12243;42.708;23.310;2022-10-30T00:28:42;20.67;;;15.73;;
16450;SDS011;12243;42.708;23.310;2022-10-30T00:31:09;23.17;;;16.57;;
16450;SDS011;12243;42.708;23.310;2022-10-30T00:33:36;24.13;;;16.93;;
16450;SDS011;12243;42.708;23.310;2022-10-30T00:36:03;28.83;;;17.90;;
16450;SDS011;12243;42.708;23.310;2022-10-30T00:38:30;27.33;;;18.30;;
16450;SDS011;12243;42.708;23.310;2022-10-30T00:40:57;26.57;;;16.73;;
16450;SDS011;12243;42.708;23.310;2022-10-30T00:43:32;27.93;;;17.90;;
16450;SDS011;12243;42.708;23.310;2022-10-30T00:46:04;25.47;;;17.63;;
16450;SDS011;12243;42.708;23.310;2022-10-30T00:48:37;23.67;;;17.70;;
16450;SDS011;12243;42.708;23.310;2022-10-30T00:51:04;24.97;;;18.03;;
16450;SDS011;12243;42.708;23.310;2022-10-30T00:53:35;26.70;;;18.13;;
16450;SDS011;12243;42.708;23.310;2022-10-30T00:56:04;19.93;;;16.20;;
16450;SDS011;12243;42.708;23.310;2022-10-30T00:58:35;25.27;;;16.90;;
16450;SDS011;12243;42.708;23.310;2022-10-30T01:01:08;23.40;;;17.27;;
16450;SDS011;12243;42.708;23.310;2022-10-30T01:03:41;25.07;;;17.00;;
16450;SDS011;12243;42.708;23.310;2022-10-30T01:06:09;22.83;;;17.13;;
16450;SDS011;12243;42.708;23.310;2022-10-30T01:08:40;23.90;;;16.83;;
16450;SDS011;12243;42.708;23.310;2022-10-30T01:11:07;22.43;;;17.90;;
16450;SDS011;12243;42.708;23.310;2022-10-30T01:13:35;24.53;;;17.23;;
16450;SDS011;12243;42.708;23.310;2022-10-30T01:19:16;25.20;;;17.53;;
16450;SDS011;12243;42.708;23.310;2022-10-30T01:21:50;23.87;;;17.20;;
16450;SDS011;12243;42.708;23.310;2022-10-30T01:24:33;25.10;;;17.60;;
16450;SDS011;12243;42.708;23.310;2022-10-30T01:27:13;27.97;;;17.80;;
16450;SDS011;12243;42.708;23.310;2022-10-30T01:29:54;24.17;;;17.87;;
16450;SDS011;12243;42.708;23.310;2022-10-30T01:32:36;28.70;;;21.10;;
16450;SDS011;12243;42.708;23.310;2022-10-30T01:35:17;26.63;;;21.17;;
16450;SDS011;12243;42.708;23.310;2022-10-30T01:37:49;32.07;;;21.33;;
16450;SDS011;12243;42.708;23.310;2022-10-30T01:40:22;29.60;;;20.43;;
16450;SDS011;12243;42.708;23.310;2022-10-30T01:42:52;29.80;;;19.60;;
16450;SDS011;12243;42.708;23.310;2022-10-30T01:45:38;24.17;;;18.77;;
16450;SDS011;12243;42.708;23.310;2022-10-30T01:48:21;26.27;;;19.00;;
16450;SDS011;12243;42.708;23.310;2022-10-30T01:51:08;27.97;;;19.77;;
16450;SDS011;12243;42.708;23.310;2022-10-30T01:53:42;21.67;;;17.37;;
16450;SDS011;12243;42.708;23.310;2022-10-30T01:56:19;28.00;;;19.00;;
16450;SDS011;12243;42.708;23.310;2022-10-30T01:58:59;24.30;;;17.40;;
16450;SDS011;12243;42.708;23.310;2022-10-30T02:01:33;22.77;;;16.77;;
16450;SDS011;12243;42.708;23.310;2022-10-30T02:04:02;20.53;;;16.03;;
16450;SDS011;12243;42.708;23.310;2022-10-30T02:06:31;19.20;;;15.97;;
16450;SDS011;12243;42.708;23.310;2022-10-30T02:08:58;21.37;;;16.80;;
16450;SDS011;12243;42.708;23.310;2022-10-30T02:11:25;22.43;;;16.30;;
16450;SDS011;12243;42.708;23.310;2022-10-30T02:13:54;21.57;;;15.23;;
16450;SDS011;12243;42.708;23.310;2022-10-30T02:16:22;26.20;;;17.93;;
16450;SDS011;12243;42.708;23.310;2022-10-30T02:18:49;20.43;;;15.57;;
16450;SDS011;12243;42.708;23.310;2022-10-30T02:21:18;19.07;;;14.87;;
16450;SDS011;12243;42.708;23.310;2022-10-30T02:23:45;19.97;;;15.43;;
16450;SDS011;12243;42.708;23.310;2022-10-30T02:26:12;19.80;;;14.63;;
16450;SDS011;12243;42.708;23.310;2022-10-30T02:28:40;17.47;;;14.17;;
16450;SDS011;12243;42.708;23.310;2022-10-30T02:31:07;19.83;;;14.07;;
16450;SDS011;12243;42.708;23.310;2022-10-30T02:33:34;17.47;;;14.37;;
16450;SDS011;12243;42.708;23.310;2022-10-30T02:36:02;17.00;;;13.97;;
16450;SDS011;12243;42.708;23.310;2022-10-30T02:38:31;18.03;;;14.90;;
16450;SDS011;12243;42.708;23.310;2022-10-30T02:40:58;21.27;;;14.73;;
16450;SDS011;12243;42.708;23.310;2022-10-30T02:43:25;17.10;;;14.97;;
16450;SDS011;12243;42.708;23.310;2022-10-30T02:45:52;20.13;;;14.70;;
16450;SDS011;12243;42.708;23.310;2022-10-30T02:48:19;20.37;;;14.07;;
16450;SDS011;12243;42.708;23.310;2022-10-30T02:50:46;17.87;;;15.20;;
16450;SDS011;12243;42.708;23.310;2022-10-30T02:53:13;18.60;;;13.97;;
16450;SDS011;12243;42.708;23.310;2022-10-30T02:55:42;16.80;;;13.83;;
16450;SDS011;12243;42.708;23.310;2022-10-30T02:58:09;18.60;;;14.60;;
16450;SDS011;12243;42.708;23.310;2022-10-30T03:00:36;16.30;;;14.50;;
16450;SDS011;12243;42.708;23.310;2022-10-30T03:03:03;22.27;;;16.60;;
16450;SDS011;12243;42.708;23.310;2022-10-30T03:05:30;20.30;;;14.40;;
16450;SDS011;12243;42.708;23.310;2022-10-30T03:07:57;15.20;;;12.77;;
16450;SDS011;12243;42.708;23.310;2022-10-30T03:10:24;18.77;;;13.03;;
16450;SDS011;12243;42.708;23.310;2022-10-30T03:12:52;17.30;;;13.60;;
16450;SDS011;12243;42.708;23.310;2022-10-30T03:15:19;12.60;;;11.20;;
16450;SDS011;12243;42.708;23.310;2022-10-30T03:17:46;14.03;;;10.77;;
16450;SDS011;12243;42.708;23.310;2022-10-30T03:20:16;12.97;;;9.97;;
16450;SDS011;12243;42.708;23.310;2022-10-30T03:22:43;11.43;;;10.17;;
16450;SDS011;12243;42.708;23.310;2022-10-30T03:25:10;10.60;;;9.63;;
16450;SDS011;12243;42.708;23.310;2022-10-30T03:27:37;14.43;;;11.87;;
16450;SDS011;12243;42.708;23.310;2022-10-30T03:30:06;13.97;;;12.03;;
16450;SDS011;12243;42.708;23.310;2022-10-30T03:32:33;16.73;;;11.33;;
16450;SDS011;12243;42.708;23.310;2022-10-30T03:35:02;15.50;;;11.13;;
16450;SDS011;12243;42.708;23.310;2022-10-30T03:37:29;14.63;;;10.70;;
16450;SDS011;12243;42.708;23.310;2022-10-30T03:39:56;12.00;;;10.47;;
16450;SDS011;12243;42.708;23.310;2022-10-30T03:42:23;13.33;;;10.63;;
16450;SDS011;12243;42.708;23.310;2022-10-30T03:44:50;12.67;;;10.70;;
16450;SDS011;12243;42.708;23.310;2022-10-30T03:47:18;15.70;;;11.50;;
16450;SDS011;12243;42.708;23.310;2022-10-30T03:49:45;12.70;;;11.17;;
16450;SDS011;12243;42.708;23.310;2022-10-30T03:52:17;13.97;;;10.73;;
16450;SDS011;12243;42.708;23.310;2022-10-30T03:54:43;14.60;;;11.10;;
16450;SDS011;12243;42.708;23.310;2022-10-30T03:57:14;12.93;;;10.33;;
16450;SDS011;12243;42.708;23.310;2022-10-30T04:00:01;12.30;;;10.70;;
16450;SDS011;12243;42.708;23.310;2022-10-30T04:02:44;14.23;;;10.73;;
16450;SDS011;12243;42.708;23.310;2022-10-30T04:05:13;13.47;;;10.30;;
16450;SDS011;12243;42.708;23.310;2022-10-30T04:07:40;12.87;;;10.17;;
16450;SDS011;12243;42.708;23.310;2022-10-30T04:10:09;17.43;;;11.03;;
16450;SDS011;12243;42.708;23.310;2022-10-30T04:12:37;17.90;;;11.57;;
16450;SDS011;12243;42.708;23.310;2022-10-30T04:15:05;16.40;;;11.90;;
16450;SDS011;12243;42.708;23.310;2022-10-30T04:17:36;17.10;;;12.23;;
16450;SDS011;12243;42.708;23.310;2022-10-30T04:20:05;25.97;;;16.60;;
16450;SDS011;12243;42.708;23.310;2022-10-30T04:22:33;17.80;;;14.87;;
16450;SDS011;12243;42.708;23.310;2022-10-30T04:25:00;21.23;;;16.87;;
16450;SDS011;12243;42.708;23.310;2022-10-30T04:27:31;21.80;;;17.30;;
16450;SDS011;12243;42.708;23.310;2022-10-30T04:30:05;22.43;;;16.43;;
16450;SDS011;12243;42.708;23.310;2022-10-30T04:32:33;18.30;;;12.53;;
16450;SDS011;12243;42.708;23.310;2022-10-30T04:35:00;15.47;;;12.83;;
16450;SDS011;12243;42.708;23.310;2022-10-30T04:37:29;17.00;;;12.77;;
16450;SDS011;12243;42.708;23.310;2022-10-30T04:39:56;20.83;;;14.93;;
16450;SDS011;12243;42.708;23.310;2022-10-30T04:42:25;19.50;;;13.23;;
16450;SDS011;12243;42.708;23.310;2022-10-30T04:44:52;18.63;;;13.80;;
16450;SDS011;12243;42.708;23.310;2022-10-30T04:47:19;16.57;;;13.17;;
16450;SDS011;12243;42.708;23.310;2022-10-30T04:49:46;16.83;;;12.70;;
16450;SDS011;12243;42.708;23.310;2022-10-30T04:52:13;20.57;;;13.80;;
16450;SDS011;12243;42.708;23.310;2022-10-30T04:54:41;21.03;;;14.37;;
16450;SDS011;12243;42.708;23.310;2022-10-30T04:57:10;18.77;;;13.37;;
16450;SDS011;12243;42.708;23.310;2022-10-30T04:59:39;16.40;;;13.07;;
16450;SDS011;12243;42.708;23.310;2022-10-30T05:02:06;18.70;;;14.87;;
16450;SDS011;12243;42.708;23.310;2022-10-30T05:04:33;25.67;;;17.47;;
16450;SDS011;12243;42.708;23.310;2022-10-30T05:07:02;28.80;;;16.67;;
16450;SDS011;12243;42.708;23.310;2022-10-30T05:09:29;24.03;;;16.03;;
16450;SDS011;12243;42.708;23.310;2022-10-30T05:11:57;26.77;;;16.13;;
16450;SDS011;12243;42.708;23.310;2022-10-30T05:14:26;23.43;;;15.90;;
16450;SDS011;12243;42.708;23.310;2022-10-30T05:16:55;19.93;;;15.63;;
16450;SDS011;12243;42.708;23.310;2022-10-30T05:19:22;25.50;;;15.77;;
16450;SDS011;12243;42.708;23.310;2022-10-30T05:21:53;20.17;;;15.97;;
16450;SDS011;12243;42.708;23.310;2022-10-30T05:24:21;19.67;;;14.50;;
16450;SDS011;12243;42.708;23.310;2022-10-30T05:26:49;19.43;;;14.20;;
16450;SDS011;12243;42.708;23.310;2022-10-30T05:29:17;17.70;;;14.77;;
16450;SDS011;12243;42.708;23.310;2022-10-30T05:31:44;19.70;;;14.67;;
16450;SDS011;12243;42.708;23.310;2022-10-30T05:34:13;21.83;;;15.97;;
16450;SDS011;12243;42.708;23.310;2022-10-30T05:36:42;25.10;;;15.37;;
16450;SDS011;12243;42.708;23.310;2022-10-30T05:39:12;19.80;;;16.00;;
16450;SDS011;12243;42.708;23.310;2022-10-30T05:41:42;24.27;;;16.43;;
16450;SDS011;12243;42.708;23.310;2022-10-30T05:44:09;18.70;;;15.13;;
16450;SDS011;12243;42.708;23.310;2022-10-30T05:46:40;23.90;;;15.17;;
16450;SDS011;12243;42.708;23.310;2022-10-30T05:49:17;34.47;;;22.17;;
16450;SDS011;12243;42.708;23.310;2022-10-30T05:51:44;24.03;;;18.07;;
16450;SDS011;12243;42.708;23.310;2022-10-30T05:54:11;21.63;;;14.33;;
16450;SDS011;12243;42.708;23.310;2022-10-30T05:56:51;24.07;;;16.47;;
16450;SDS011;12243;42.708;23.310;2022-10-30T05:59:19;21.67;;;16.67;;
16450;SDS011;12243;42.708;23.310;2022-10-30T06:01:47;23.07;;;15.73;;
16450;SDS011;12243;42.708;23.310;2022-10-30T06:04:14;30.63;;;19.23;;
16450;SDS011;12243;42.708;23.310;2022-10-30T06:06:41;27.63;;;16.60;;
16450;SDS011;12243;42.708;23.310;2022-10-30T06:09:08;36.83;;;16.53;;
16450;SDS011;12243;42.708;23.310;2022-10-30T06:11:53;23.03;;;15.27;;
16450;SDS011;12243;42.708;23.310;2022-10-30T06:14:30;24.23;;;15.00;;
16450;SDS011;12243;42.708;23.310;2022-10-30T06:16:59;26.67;;;15.17;;
16450;SDS011;12243;42.708;23.310;2022-10-30T06:19:32;23.17;;;14.83;;
16450;SDS011;12243;42.708;23.310;2022-10-30T06:22:34;18.90;;;14.07;;
16450;SDS011;12243;42.708;23.310;2022-10-30T06:25:10;18.80;;;13.97;;
16450;SDS011;12243;42.708;23.310;2022-10-30T06:27:55;25.13;;;15.67;;
16450;SDS011;12243;42.708;23.310;2022-10-30T06:30:23;26.13;;;16.90;;
16450;SDS011;12243;42.708;23.310;2022-10-30T06:32:55;23.33;;;15.47;;
16450;SDS011;12243;42.708;23.310;2022-10-30T06:35:23;23.33;;;15.63;;
16450;SDS011;12243;42.708;23.310;2022-10-30T06:37:51;26.20;;;15.17;;
16450;SDS011;12243;42.708;23.310;2022-10-30T06:40:19;27.00;;;15.87;;
16450;SDS011;12243;42.708;23.310;2022-10-30T06:42:59;28.37;;;15.43;;
16450;SDS011;12243;42.708;23.310;2022-10-30T06:45:35;26.77;;;15.93;;
16450;SDS011;12243;42.708;23.310;2022-10-30T06:48:04;24.70;;;15.40;;
16450;SDS011;12243;42.708;23.310;2022-10-30T06:50:37;34.20;;;16.50;;
16450;SDS011;12243;42.708;23.310;2022-10-30T06:53:04;28.13;;;15.60;;
16450;SDS011;12243;42.708;23.310;2022-10-30T06:55:32;23.03;;;15.17;;
16450;SDS011;12243;42.708;23.310;2022-10-30T06:58:17;21.47;;;15.77;;
16450;SDS011;12243;42.708;23.310;2022-10-30T07:00:54;20.17;;;15.10;;
16450;SDS011;12243;42.708;23.310;2022-10-30T07:03:41;26.10;;;15.00;;
16450;SDS011;12243;42.708;23.310;2022-10-30T07:06:08;24.20;;;16.00;;
16450;SDS011;12243;42.708;23.310;2022-10-30T07:08:36;19.63;;;15.47;;
16450;SDS011;12243;42.708;23.310;2022-10-30T07:11:02;23.27;;;16.67;;
16450;SDS011;12243;42.708;23.310;2022-10-30T07:13:50;25.70;;;15.27;;
16450;SDS011;12243;42.708;23.310;2022-10-30T07:16:35;21.57;;;15.20;;
16450;SDS011;12243;42.708;23.310;2022-10-30T07:19:04;22.37;;;15.40;;
16450;SDS011;12243;42.708;23.310;2022-10-30T07:21:32;24.80;;;15.87;;
16450;SDS011;12243;42.708;23.310;2022-10-30T07:24:03;20.90;;;14.93;;
16450;SDS011;12243;42.708;23.310;2022-10-30T07:26:42;20.97;;;15.40;;
16450;SDS011;12243;42.708;23.310;2022-10-30T07:29:38;22.93;;;15.63;;
16450;SDS011;12243;42.708;23.310;2022-10-30T07:32:20;22.83;;;15.90;;
16450;SDS011;12243;42.708;23.310;2022-10-30T07:35:05;20.67;;;15.87;;
16450;SDS011;12243;42.708;23.310;2022-10-30T07:37:52;21.50;;;15.63;;
16450;SDS011;12243;42.708;23.310;2022-10-30T07:40:24;22.27;;;16.50;;
16450;SDS011;12243;42.708;23.310;2022-10-30T07:42:59;19.90;;;15.67;;
16450;SDS011;12243;42.708;23.310;2022-10-30T07:45:47;25.53;;;17.50;;
16450;SDS011;12243;42.708;23.310;2022-10-30T07:48:32;22.57;;;15.80;;
16450;SDS011;12243;42.708;23.310;2022-10-30T07:51:27;20.03;;;15.43;;
16450;SDS011;12243;42.708;23.310;2022-10-30T07:53:54;26.63;;;16.10;;
16450;SDS011;12243;42.708;23.310;2022-10-30T07:56:23;21.13;;;15.70;;
16450;SDS011;12243;42.708;23.310;2022-10-30T07:58:50;20.03;;;16.63;;
16450;SDS011;12243;42.708;23.310;2022-10-30T08:01:53;20.23;;;15.90;;
16450;SDS011;12243;42.708;23.310;2022-10-30T08:04:30;22.90;;;15.90;;
16450;SDS011;12243;42.708;23.310;2022-10-30T08:07:07;19.70;;;16.13;;
16450;SDS011;12243;42.708;23.310;2022-10-30T08:09:34;23.20;;;16.23;;
16450;SDS011;12243;42.708;23.310;2022-10-30T08:12:01;19.00;;;15.07;;
16450;SDS011;12243;42.708;23.310;2022-10-30T08:14:28;25.97;;;15.63;;
16450;SDS011;12243;42.708;23.310;2022-10-30T08:16:55;22.57;;;16.60;;
16450;SDS011;12243;42.708;23.310;2022-10-30T08:19:22;20.00;;;16.03;;
16450;SDS011;12243;42.708;23.310;2022-10-30T08:21:49;21.20;;;16.30;;
16450;SDS011;12243;42.708;23.310;2022-10-30T08:24:19;17.67;;;14.93;;
16450;SDS011;12243;42.708;23.310;2022-10-30T08:26:51;23.80;;;16.63;;
16450;SDS011;12243;42.708;23.310;2022-10-30T08:29:18;22.73;;;18.33;;
16450;SDS011;12243;42.708;23.310;2022-10-30T08:31:47;19.80;;;15.57;;
16450;SDS011;12243;42.708;23.310;2022-10-30T08:34:23;15.47;;;13.67;;
16450;SDS011;12243;42.708;23.310;2022-10-30T08:36:52;22.33;;;15.10;;
16450;SDS011;12243;42.708;23.310;2022-10-30T08:39:21;16.73;;;14.13;;
16450;SDS011;12243;42.708;23.310;2022-10-30T08:42:02;15.53;;;12.73;;
16450;SDS011;12243;42.708;23.310;2022-10-30T08:44:35;14.73;;;13.23;;
16450;SDS011;12243;42.708;23.310;2022-10-30T08:47:08;19.73;;;13.13;;
16450;SDS011;12243;42.708;23.310;2022-10-30T08:49:36;17.77;;;13.83;;
16450;SDS011;12243;42.708;23.310;2022-10-30T08:52:06;16.40;;;13.93;;
16450;SDS011;12243;42.708;23.310;2022-10-30T08:54:34;17.40;;;13.70;;
16450;SDS011;12243;42.708;23.310;2022-10-30T08:57:01;15.30;;;13.63;;
16450;SDS011;12243;42.708;23.310;2022-10-30T08:59:28;15.97;;;13.80;;
16450;SDS011;12243;42.708;23.310;2022-10-30T09:01:57;15.60;;;13.30;;
16450;SDS011;12243;42.708;23.310;2022-10-30T09:04:44;18.03;;;13.20;;
16450;SDS011;12243;42.708;23.310;2022-10-30T09:07:30;15.77;;;12.57;;
16450;SDS011;12243;42.708;23.310;2022-10-30T09:10:21;18.50;;;12.87;;
16450;SDS011;12243;42.708;23.310;2022-10-30T09:12:52;14.57;;;11.20;;
16450;SDS011;12243;42.708;23.310;2022-10-30T09:15:20;19.33;;;12.63;;
16450;SDS011;12243;42.708;23.310;2022-10-30T09:17:56;18.27;;;12.63;;
16450;SDS011;12243;42.708;23.310;2022-10-30T09:20:24;16.10;;;12.97;;
16450;SDS011;12243;42.708;23.310;2022-10-30T09:22:51;20.80;;;12.27;;
16450;SDS011;12243;42.708;23.310;2022-10-30T09:25:19;13.73;;;11.00;;
16450;SDS011;12243;42.708;23.310;2022-10-30T09:28:10;12.90;;;11.10;;
16450;SDS011;12243;42.708;23.310;2022-10-30T09:30:56;14.93;;;11.50;;
16450;SDS011;12243;42.708;23.310;2022-10-30T09:33:25;13.07;;;11.65;;
16450;SDS011;12243;42.708;23.310;2022-10-30T09:36:15;15.10;;;11.50;;
16450;SDS011;12243;42.708;23.310;2022-10-30T09:38:42;12.38;;;11.15;;
16450;SDS011;12243;42.708;23.310;2022-10-30T09:41:15;12.82;;;10.40;;
16450;SDS011;12243;42.708;23.310;2022-10-30T09:43:58;15.93;;;10.55;;
16450;SDS011;12243;42.708;23.310;2022-10-30T09:46:37;18.75;;;10.63;;
16450;SDS011;12243;42.708;23.310;2022-10-30T09:49:19;14.23;;;10.80;;
16450;SDS011;12243;42.708;23.310;2022-10-30T09:52:07;15.65;;;10.43;;
16450;SDS011;12243;42.708;23.310;2022-10-30T09:54:59;12.65;;;9.65;;
16450;SDS011;12243;42.708;23.310;2022-10-30T09:57:42;11.82;;;10.20;;
16450;SDS011;12243;42.708;23.310;2022-10-30T10:00:18;10.93;;;8.88;;
16450;SDS011;12243;42.708;23.310;2022-10-30T10:02:56;10.30;;;9.20;;
16450;SDS011;12243;42.708;23.310;2022-10-30T10:05:43;9.77;;;8.77;;
16450;SDS011;12243;42.708;23.310;2022-10-30T10:08:32;11.48;;;9.60;;
16450;SDS011;12243;42.708;23.310;2022-10-30T10:11:37;14.32;;;8.30;;
16450;SDS011;12243;42.708;23.310;2022-10-30T10:14:10;10.75;;;8.02;;
16450;SDS011;12243;42.708;23.310;2022-10-30T10:16:40;9.07;;;7.97;;
16450;SDS011;12243;42.708;23.310;2022-10-30T10:19:13;8.02;;;7.22;;
16450;SDS011;12243;42.708;23.310;2022-10-30T10:21:45;10.40;;;6.53;;
16450;SDS011;12243;42.708;23.310;2022-10-30T10:24:16;9.00;;;7.30;;
16450;SDS011;12243;42.708;23.310;2022-10-30T10:26:47;10.18;;;6.65;;
16450;SDS011;12243;42.708;23.310;2022-10-30T10:29:23;6.82;;;5.85;;
16450;SDS011;12243;42.708;23.310;2022-10-30T10:32:09;6.05;;;5.43;;
16450;SDS011;12243;42.708;23.310;2022-10-30T10:35:07;7.13;;;5.93;;
16450;SDS011;12243;42.708;23.310;2022-10-30T10:37:48;8.15;;;6.00;;
16450;SDS011;12243;42.708;23.310;2022-10-30T10:40:23;6.93;;;5.78;;
16450;SDS011;12243;42.708;23.310;2022-10-30T10:43:02;10.00;;;7.22;;
16450;SDS011;12243;42.708;23.310;2022-10-30T10:45:45;7.72;;;7.03;;
16450;SDS011;12243;42.708;23.310;2022-10-30T10:51:15;9.23;;;6.53;;
16450;SDS011;12243;42.708;23.310;2022-10-30T10:53:45;6.32;;;5.78;;
16450;SDS011;12243;42.708;23.310;2022-10-30T10:56:19;6.97;;;5.50;;
16450;SDS011;12243;42.708;23.310;2022-10-30T10:58:53;5.70;;;5.18;;
16450;SDS011;12243;42.708;23.310;2022-10-30T11:01:26;8.07;;;5.60;;
16450;SDS011;12243;42.708;23.310;2022-10-30T11:04:02;7.68;;;6.00;;
16450;SDS011;12243;42.708;23.310;2022-10-30T11:06:34;8.73;;;4.97;;
16450;SDS011;12243;42.708;23.310;2022-10-30T11:09:10;8.73;;;4.90;;
16450;SDS011;12243;42.708;23.310;2022-10-30T11:11:40;4.95;;;4.45;;
16450;SDS011;12243;42.708;23.310;2022-10-30T11:14:11;5.45;;;4.00;;
16450;SDS011;12243;42.708;23.310;2022-10-30T11:16:45;6.28;;;4.40;;
16450;SDS011;12243;42.708;23.310;2022-10-30T11:19:19;5.85;;;4.50;;
16450;SDS011;12243;42.708;23.310;2022-10-30T11:21:47;5.13;;;4.55;;
16450;SDS011;12243;42.708;23.310;2022-10-30T11:24:27;4.93;;;4.20;;
16450;SDS011;12243;42.708;23.310;2022-10-30T11:26:56;6.35;;;4.55;;
16450;SDS011;12243;42.708;23.310;2022-10-30T11:29:45;7.60;;;4.57;;
16450;SDS011;12243;42.708;23.310;2022-10-30T11:32:18;5.38;;;4.35;;
16450;SDS011;12243;42.708;23.310;2022-10-30T11:34:52;5.25;;;4.13;;
16450;SDS011;12243;42.708;23.310;2022-10-30T11:37:30;10.75;;;4.60;;
16450;SDS011;12243;42.708;23.310;2022-10-30T11:40:00;5.47;;;4.07;;
16450;SDS011;12243;42.708;23.310;2022-10-30T11:42:31;5.28;;;4.07;;
16450;SDS011;12243;42.708;23.310;2022-10-30T11:44:58;4.78;;;3.80;;
16450;SDS011;12243;42.708;23.310;2022-10-30T11:47:28;3.83;;;3.55;;
16450;SDS011;12243;42.708;23.310;2022-10-30T11:49:58;8.30;;;4.13;;
16450;SDS011;12243;42.708;23.310;2022-10-30T11:52:26;8.70;;;4.13;;
16450;SDS011;12243;42.708;23.310;2022-10-30T11:54:55;6.40;;;3.17;;
16450;SDS011;12243;42.708;23.310;2022-10-30T11:57:27;4.05;;;3.22;;
16450;SDS011;12243;42.708;23.310;2022-10-30T11:59:59;3.75;;;3.38;;
16450;SDS011;12243;42.708;23.310;2022-10-30T12:02:40;4.18;;;3.45;;
16450;SDS011;12243;42.708;23.310;2022-10-30T12:08:10;5.00;;;3.22;;
16450;SDS011;12243;42.708;23.310;2022-10-30T12:10:43;5.30;;;3.50;;
16450;SDS011;12243;42.708;23.310;2022-10-30T12:13:12;5.43;;;3.70;;
16450;SDS011;12243;42.708;23.310;2022-10-30T12:15:41;4.90;;;3.40;;
16450;SDS011;12243;42.708;23.310;2022-10-30T12:18:15;4.38;;;3.45;;
16450;SDS011;12243;42.708;23.310;2022-10-30T12:20:45;4.15;;;3.10;;
16450;SDS011;12243;42.708;23.310;2022-10-30T12:23:17;3.35;;;3.00;;
16450;SDS011;12243;42.708;23.310;2022-10-30T12:25:49;3.50;;;3.20;;
16450;SDS011;12243;42.708;23.310;2022-10-30T12:28:18;5.47;;;3.33;;
16450;SDS011;12243;42.708;23.310;2022-10-30T12:30:48;4.90;;;3.35;;
16450;SDS011;12243;42.708;23.310;2022-10-30T12:33:21;4.13;;;3.65;;
16450;SDS011;12243;42.708;23.310;2022-10-30T12:35:53;3.90;;;3.50;;
16450;SDS011;12243;42.708;23.310;2022-10-30T12:38:23;3.83;;;3.05;;
16450;SDS011;12243;42.708;23.310;2022-10-30T12:40:56;5.25;;;3.85;;
16450;SDS011;12243;42.708;23.310;2022-10-30T12:43:30;5.15;;;3.60;;
16450;SDS011;12243;42.708;23.310;2022-10-30T12:46:03;8.32;;;3.20;;
16450;SDS011;12243;42.708;23.310;2022-10-30T12:48:43;7.68;;;3.33;;
16450;SDS011;12243;42.708;23.310;2022-10-30T12:51:16;3.92;;;3.22;;
16450;SDS011;12243;42.708;23.310;2022-10-30T12:53:50;4.88;;;2.90;;
16450;SDS011;12243;42.708;23.310;2022-10-30T12:56:24;6.35;;;2.38;;
16450;SDS011;12243;42.708;23.310;2022-10-30T12:58:55;4.75;;;2.78;;
16450;SDS011;12243;42.708;23.310;2022-10-30T13:01:35;6.20;;;2.72;;
16450;SDS011;12243;42.708;23.310;2022-10-30T13:04:09;5.28;;;2.53;;
16450;SDS011;12243;42.708;23.310;2022-10-30T13:06:44;5.05;;;2.70;;
16450;SDS011;12243;42.708;23.310;2022-10-30T13:09:16;8.20;;;2.47;;
16450;SDS011;12243;42.708;23.310;2022-10-30T13:11:48;4.70;;;2.38;;
16450;SDS011;12243;42.708;23.310;2022-10-30T13:14:20;6.55;;;2.70;;
16450;SDS011;12243;42.708;23.310;2022-10-30T13:16:53;3.42;;;2.70;;
16450;SDS011;12243;42.708;23.310;2022-10-30T13:19:22;3.67;;;2.40;;
16450;SDS011;12243;42.708;23.310;2022-10-30T13:21:52;3.72;;;2.40;;
16450;SDS011;12243;42.708;23.310;2022-10-30T13:24:39;5.40;;;2.42;;
16450;SDS011;12243;42.708;23.310;2022-10-30T13:27:13;4.65;;;2.40;;
16450;SDS011;12243;42.708;23.310;2022-10-30T13:29:48;5.72;;;2.20;;
16450;SDS011;12243;42.708;23.310;2022-10-30T13:32:27;2.92;;;2.50;;
16450;SDS011;12243;42.708;23.310;2022-10-30T13:35:08;4.78;;;2.50;;
16450;SDS011;12243;42.708;23.310;2022-10-30T13:37:45;6.45;;;2.20;;
16450;SDS011;12243;42.708;23.310;2022-10-30T13:40:23;6.03;;;2.53;;
16450;SDS011;12243;42.708;23.310;2022-10-30T13:43:01;6.47;;;2.72;;
16450;SDS011;12243;42.708;23.310;2022-10-30T13:45:46;3.85;;;2.10;;
16450;SDS011;12243;42.708;23.310;2022-10-30T13:48:26;6.10;;;2.70;;
16450;SDS011;12243;42.708;23.310;2022-10-30T13:51:08;6.72;;;2.30;;
16450;SDS011;12243;42.708;23.310;2022-10-30T13:53:47;7.03;;;2.75;;
16450;SDS011;12243;42.708;23.310;2022-10-30T13:56:21;8.68;;;2.63;;
16450;SDS011;12243;42.708;23.310;2022-10-30T13:58:50;8.00;;;2.80;;
16450;SDS011;12243;42.708;23.310;2022-10-30T14:01:29;11.90;;;2.72;;
16450;SDS011;12243;42.708;23.310;2022-10-30T14:04:02;4.32;;;2.80;;
16450;SDS011;12243;42.708;23.310;2022-10-30T14:06:37;6.32;;;3.15;;
16450;SDS011;12243;42.708;23.310;2022-10-30T14:09:11;8.35;;;2.92;;
16450;SDS011;12243;42.708;23.310;2022-10-30T14:11:46;5.10;;;2.60;;
16450;SDS011;12243;42.708;23.310;2022-10-30T14:17:09;8.45;;;3.28;;
16450;SDS011;12243;42.708;23.310;2022-10-30T14:23:05;7.53;;;3.15;;
16450;SDS011;12243;42.708;23.310;2022-10-30T14:25:34;4.35;;;2.90;;
16450;SDS011;12243;42.708;23.310;2022-10-30T14:28:01;11.07;;;3.50;;
16450;SDS011;12243;42.708;23.310;2022-10-30T14:30:28;9.32;;;3.30;;
16450;SDS011;12243;42.708;23.310;2022-10-30T14:32:55;6.15;;;3.45;;
16450;SDS011;12243;42.708;23.310;2022-10-30T14:35:38;7.20;;;3.47;;
16450;SDS011;12243;42.708;23.310;2022-10-30T14:47:21;6.15;;;3.13;;
16450;SDS011;12243;42.708;23.310;2022-10-30T14:50:09;11.23;;;3.80;;
16450;SDS011;12243;42.708;23.310;2022-10-30T14:52:49;7.00;;;3.67;;
16450;SDS011;12243;42.708;23.310;2022-10-30T14:55:29;10.07;;;3.85;;
16450;SDS011;12243;42.708;23.310;2022-10-30T14:58:15;8.98;;;4.20;;
16450;SDS011;12243;42.708;23.310;2022-10-30T15:00:47;8.43;;;4.00;;
16450;SDS011;12243;42.708;23.310;2022-10-30T15:03:16;6.68;;;4.03;;
16450;SDS011;12243;42.708;23.310;2022-10-30T15:05:52;10.95;;;4.47;;
16450;SDS011;12243;42.708;23.310;2022-10-30T15:11:28;7.28;;;4.07;;
16450;SDS011;12243;42.708;23.310;2022-10-30T15:14:04;12.75;;;3.95;;
16450;SDS011;12243;42.708;23.310;2022-10-30T15:16:36;10.43;;;4.13;;